createdAt,value
2022-07-30T00:03:23.344Z,2.70
2022-07-30T00:07:26.483Z,3.53
2022-07-30T00:11:29.542Z,3.05
2022-07-30T00:15:34.035Z,3.55
2022-07-30T00:19:37.075Z,3.63
2022-07-30T00:23:40.175Z,3.22
2022-07-30T00:28:03.158Z,2.72
2022-07-30T00:32:07.924Z,3.05
2022-07-30T00:36:10.988Z,3.30
2022-07-30T00:40:14.032Z,3.00
2022-07-30T00:44:17.078Z,2.92
2022-07-30T00:48:21.431Z,3.60
2022-07-30T00:52:24.568Z,3.58
2022-07-30T00:56:27.686Z,4.03
2022-07-30T01:06:31.941Z,3.30
2022-07-30T01:10:35.267Z,3.75
2022-07-30T01:14:39.178Z,3.83
2022-07-30T01:19:01.738Z,3.92
2022-07-30T01:23:14.211Z,3.58
2022-07-30T01:27:20.770Z,3.80
2022-07-30T01:31:27.150Z,3.38
2022-07-30T01:35:33.327Z,3.83
2022-07-30T01:39:37.359Z,4.00
2022-07-30T01:43:43.080Z,3.70
2022-07-30T01:47:47.695Z,3.10
2022-07-30T01:51:53.635Z,3.47
2022-07-30T01:55:57.573Z,3.50
2022-07-30T02:00:05.105Z,3.90
2022-07-30T02:04:19.736Z,4.53
2022-07-30T02:08:28.977Z,4.45
2022-07-30T02:12:34.878Z,4.30
2022-07-30T02:16:50.397Z,4.07
2022-07-30T02:20:59.810Z,4.63
2022-07-30T02:25:07.677Z,4.60
2022-07-30T02:29:12.352Z,4.22
2022-07-30T02:33:20.294Z,4.88
2022-07-30T02:37:40.994Z,5.13
2022-07-30T02:41:49.954Z,4.88
2022-07-30T02:45:54.846Z,5.38
2022-07-30T02:50:06.439Z,4.60
2022-07-30T02:54:12.622Z,5.00
2022-07-30T02:58:18.430Z,4.75
2022-07-30T03:02:25.637Z,5.07
2022-07-30T03:06:34.725Z,6.03
2022-07-30T03:10:38.659Z,5.85
2022-07-30T03:14:42.001Z,5.05
2022-07-30T03:18:46.552Z,5.25
2022-07-30T03:22:54.464Z,5.90
2022-07-30T03:27:01.008Z,5.95
2022-07-30T03:31:05.779Z,5.88
2022-07-30T03:35:16.750Z,5.82
2022-07-30T03:39:24.398Z,6.03
2022-07-30T03:43:33.094Z,6.18
2022-07-30T03:47:39.740Z,7.13
2022-07-30T03:51:43.572Z,6.63
2022-07-30T03:55:48.528Z,7.28
2022-07-30T04:00:15.167Z,6.57
2022-07-30T04:04:23.722Z,7.13
2022-07-30T04:08:28.910Z,6.90
2022-07-30T04:12:33.712Z,6.70
2022-07-30T04:16:44.197Z,7.88
2022-07-30T04:20:53.105Z,7.82
2022-07-30T04:24:57.675Z,7.80
2022-07-30T04:29:04.573Z,8.55
2022-07-30T04:33:08.989Z,8.13
2022-07-30T04:37:12.006Z,8.43
2022-07-30T04:41:15.496Z,9.02
2022-07-30T04:45:40.386Z,8.52
2022-07-30T04:49:44.771Z,6.63
2022-07-30T04:53:50.040Z,8.13
2022-07-30T04:57:56.152Z,6.72
2022-07-30T05:02:01.636Z,7.93
2022-07-30T05:06:06.710Z,7.53
2022-07-30T05:10:13.825Z,8.20
2022-07-30T05:14:18.037Z,8.82
2022-07-30T05:18:23.288Z,8.48
2022-07-30T05:22:30.018Z,7.82
2022-07-30T05:26:33.220Z,8.32
2022-07-30T05:30:36.629Z,8.65
2022-07-30T05:34:41.339Z,8.80
2022-07-30T05:38:44.413Z,7.88
2022-07-30T05:43:07.763Z,8.52
2022-07-30T05:47:10.933Z,8.52
2022-07-30T05:51:17.042Z,9.25
2022-07-30T05:55:20.402Z,9.07
2022-07-30T05:59:30.884Z,9.00
2022-07-30T06:03:46.592Z,9.95
2022-07-30T06:08:10.290Z,8.70
2022-07-30T06:12:13.560Z,9.70
2022-07-30T06:16:17.584Z,10.02
2022-07-30T06:20:22.171Z,9.65
2022-07-30T06:24:49.186Z,11.35
2022-07-30T06:28:59.246Z,8.05
2022-07-30T06:33:06.398Z,8.05
2022-07-30T06:37:09.455Z,7.53
2022-07-30T06:41:15.752Z,9.55
2022-07-30T06:45:28.376Z,9.00
2022-07-30T06:49:52.308Z,8.45
2022-07-30T06:53:55.407Z,8.75
2022-07-30T06:58:25.815Z,8.30
2022-07-30T07:02:52.687Z,10.10
2022-07-30T07:07:12.177Z,9.50
2022-07-30T07:11:15.997Z,9.48
2022-07-30T07:15:36.338Z,8.80
2022-07-30T07:20:01.036Z,9.68
2022-07-30T07:24:05.516Z,9.50
2022-07-30T07:28:41.411Z,8.45
2022-07-30T07:32:45.895Z,8.93
2022-07-30T07:36:50.116Z,10.60
2022-07-30T07:40:53.273Z,10.02
2022-07-30T07:44:56.333Z,8.45
2022-07-30T07:49:01.653Z,8.13
2022-07-30T07:53:19.055Z,8.07
2022-07-30T07:57:22.745Z,8.45
2022-07-30T08:01:25.898Z,5.90
2022-07-30T08:05:59.051Z,5.15
2022-07-30T08:10:28.787Z,6.28
2022-07-30T08:14:50.419Z,7.13
2022-07-30T08:19:12.235Z,7.75
2022-07-30T08:23:27.125Z,7.18
2022-07-30T08:27:30.957Z,6.20
2022-07-30T08:31:34.153Z,4.90
2022-07-30T08:35:38.056Z,6.05
2022-07-30T08:39:53.111Z,4.68
2022-07-30T08:43:57.072Z,4.93
2022-07-30T08:48:02.107Z,4.72
2022-07-30T08:52:16.610Z,5.63
2022-07-30T08:56:34.146Z,6.07
2022-07-30T09:00:37.235Z,4.90
2022-07-30T09:04:40.400Z,5.30
2022-07-30T09:08:43.681Z,3.55
2022-07-30T09:12:48.876Z,3.70
2022-07-30T09:16:57.803Z,4.03
2022-07-30T09:21:02.977Z,4.10
2022-07-30T09:25:06.292Z,5.95
2022-07-30T09:29:33.977Z,5.05
2022-07-30T09:33:55.916Z,5.05
2022-07-30T09:38:17.967Z,5.72
2022-07-30T09:42:41.171Z,5.25
2022-07-30T09:46:51.841Z,4.90
2022-07-30T09:51:16.148Z,4.10
2022-07-30T09:55:31.995Z,5.32
2022-07-30T09:59:36.427Z,4.80
2022-07-30T10:03:44.369Z,3.80
2022-07-30T10:08:19.345Z,2.97
2022-07-30T10:12:26.630Z,3.33
2022-07-30T10:16:30.725Z,4.10
2022-07-30T10:20:36.664Z,2.80
2022-07-30T10:24:58.920Z,3.58
2022-07-30T10:29:22.067Z,3.00
2022-07-30T10:33:40.250Z,2.35
2022-07-30T10:37:49.462Z,1.83
2022-07-30T10:42:04.718Z,7.05
2022-07-30T10:46:22.892Z,2.25
2022-07-30T10:50:27.628Z,1.80
2022-07-30T10:54:44.600Z,1.73
2022-07-30T10:59:07.734Z,2.38
2022-07-30T11:03:23.594Z,2.35
2022-07-30T11:07:44.711Z,2.25
2022-07-30T11:12:15.889Z,2.30
2022-07-30T11:16:15.415Z,2.40
2022-07-30T11:20:21.090Z,2.72
2022-07-30T11:24:45.399Z,3.03
2022-07-30T11:28:51.113Z,2.20
2022-07-30T11:32:56.687Z,2.08
2022-07-30T11:37:18.182Z,2.10
2022-07-30T11:41:26.426Z,2.22
2022-07-30T11:45:30.976Z,2.13
2022-07-30T11:49:36.921Z,1.70
2022-07-30T11:53:39.954Z,1.80
2022-07-30T11:57:44.264Z,1.80
2022-07-30T12:01:52.649Z,1.10
2022-07-30T12:05:56.277Z,1.45
2022-07-30T12:10:13.693Z,1.80
2022-07-30T12:14:19.266Z,1.50
2022-07-30T12:18:28.409Z,1.40
2022-07-30T12:22:35.903Z,1.30
2022-07-30T12:26:39.181Z,1.40
2022-07-30T12:30:42.586Z,1.25
2022-07-30T12:34:56.856Z,2.88
2022-07-30T12:39:00.276Z,1.17
2022-07-30T12:43:03.353Z,1.23
2022-07-30T12:47:19.137Z,1.02
2022-07-30T12:51:25.543Z,1.30
2022-07-30T12:55:33.256Z,0.93
2022-07-30T12:59:38.811Z,1.00
2022-07-30T13:03:43.186Z,1.13
2022-07-30T13:07:58.863Z,1.40
2022-07-30T13:12:02.016Z,1.40
2022-07-30T13:16:06.918Z,1.13
2022-07-30T13:20:11.555Z,5.90
2022-07-30T13:24:17.897Z,3.22
2022-07-30T13:28:21.807Z,2.50
2022-07-30T13:32:24.804Z,2.63
2022-07-30T13:36:28.120Z,2.30
2022-07-30T13:40:33.176Z,7.28
2022-07-30T13:44:36.282Z,5.10
2022-07-30T13:48:39.911Z,1.52
2022-07-30T13:52:43.054Z,1.60
2022-07-30T13:56:47.574Z,1.33
2022-07-30T14:00:51.187Z,1.80
2022-07-30T14:04:57.329Z,1.33
2022-07-30T14:09:04.669Z,1.45
2022-07-30T14:13:19.440Z,9.43
2022-07-30T14:17:29.434Z,1.42
2022-07-30T14:21:36.674Z,1.38
2022-07-30T14:25:45.304Z,1.25
2022-07-30T14:29:55.438Z,1.50
2022-07-30T14:34:02.226Z,1.55
2022-07-30T14:38:08.195Z,1.75
2022-07-30T14:42:14.560Z,1.10
2022-07-30T14:46:23.805Z,1.60
2022-07-30T14:50:30.506Z,1.30
2022-07-30T14:54:37.059Z,1.30
2022-07-30T14:58:44.691Z,0.85
2022-07-30T15:02:52.378Z,1.13
2022-07-30T15:06:58.037Z,1.20
2022-07-30T15:11:05.903Z,1.45
2022-07-30T15:15:14.713Z,1.58
2022-07-30T15:19:23.732Z,1.27
2022-07-30T15:23:31.070Z,1.30
2022-07-30T15:27:38.762Z,1.30
2022-07-30T15:31:47.213Z,1.40
2022-07-30T15:35:57.907Z,1.30
2022-07-30T15:40:04.553Z,1.40
2022-07-30T15:44:15.363Z,1.50
2022-07-30T15:48:27.402Z,1.13
2022-07-30T15:52:40.552Z,1.30
2022-07-30T15:56:50.916Z,1.50
2022-07-30T16:00:58.873Z,1.20
2022-07-30T16:05:05.498Z,1.27
2022-07-30T16:09:18.570Z,21.17
2022-07-30T16:13:26.730Z,7.97
2022-07-30T16:17:34.650Z,1.30
2022-07-30T16:21:42.274Z,1.52
2022-07-30T16:25:49.334Z,1.40
2022-07-30T16:29:56.577Z,1.55
2022-07-30T16:34:03.787Z,1.38
2022-07-30T16:38:11.663Z,1.40
2022-07-30T16:42:24.967Z,1.50
2022-07-30T16:46:33.086Z,1.30
2022-07-30T16:50:41.665Z,1.40
2022-07-30T16:54:48.811Z,1.40
2022-07-30T16:58:58.658Z,1.60
2022-07-30T17:03:07.136Z,1.42
2022-07-30T17:07:14.341Z,1.80
2022-07-30T17:11:47.669Z,1.80
2022-07-30T17:15:53.858Z,1.48
2022-07-30T17:20:03.437Z,1.52
2022-07-30T17:24:15.225Z,1.63
2022-07-30T17:28:27.074Z,1.75
2022-07-30T17:32:37.964Z,1.88
2022-07-30T17:36:52.285Z,2.22
2022-07-30T17:41:03.016Z,1.58
2022-07-30T17:45:13.197Z,1.60
2022-07-30T17:49:26.221Z,1.88
2022-07-30T17:53:35.117Z,1.83
2022-07-30T17:57:43.827Z,2.05
2022-07-30T18:01:55.040Z,1.50
2022-07-30T18:06:05.579Z,2.03
2022-07-30T18:10:16.096Z,1.67
2022-07-30T18:14:25.108Z,1.60
2022-07-30T18:18:33.192Z,1.80
2022-07-30T18:22:43.263Z,2.00
2022-07-30T18:26:51.004Z,1.98
2022-07-30T18:30:56.605Z,1.70
2022-07-30T18:35:00.909Z,1.60
2022-07-30T18:39:06.954Z,1.83
2022-07-30T18:43:11.200Z,2.00
2022-07-30T18:47:15.387Z,1.90
2022-07-30T18:51:19.337Z,1.80
2022-07-30T18:55:25.131Z,1.90
2022-07-30T18:59:33.533Z,1.50
2022-07-30T19:03:41.421Z,2.00
2022-07-30T19:07:57.153Z,2.10
2022-07-30T19:12:10.724Z,2.25
2022-07-30T19:16:20.023Z,1.77
2022-07-30T19:20:28.618Z,1.60
2022-07-30T19:24:38.062Z,1.70
2022-07-30T19:28:47.742Z,1.90
2022-07-30T19:32:54.642Z,1.92
2022-07-30T19:37:02.355Z,1.90
2022-07-30T19:41:08.574Z,2.20
2022-07-30T19:45:16.171Z,1.90
2022-07-30T19:49:22.997Z,1.92
2022-07-30T19:53:40.333Z,2.40
2022-07-30T19:57:54.324Z,2.40
2022-07-30T20:02:05.859Z,1.95
2022-07-30T20:06:15.519Z,1.98
2022-07-30T20:10:20.023Z,1.90
2022-07-30T20:14:25.838Z,2.25
2022-07-30T20:18:33.409Z,1.95
2022-07-30T20:22:40.961Z,2.08
2022-07-30T20:26:48.161Z,2.20
2022-07-30T20:30:53.990Z,2.47
2022-07-30T20:35:07.177Z,2.53
2022-07-30T20:39:18.527Z,2.47
2022-07-30T20:43:26.072Z,2.85
2022-07-30T20:47:38.732Z,1.90
2022-07-30T20:51:49.459Z,3.22
2022-07-30T20:55:58.273Z,1.92
2022-07-30T21:00:09.972Z,2.00
2022-07-30T21:04:23.781Z,2.20
2022-07-30T21:08:47.425Z,2.10
2022-07-30T21:17:26.897Z,2.20
2022-07-30T21:21:41.719Z,1.85
2022-07-30T21:26:13.370Z,1.90
2022-07-30T21:30:20.472Z,2.10
2022-07-30T21:34:40.095Z,1.90
2022-07-30T21:38:52.893Z,6.07
2022-07-30T21:43:03.051Z,2.70
2022-07-30T21:47:17.285Z,1.95
2022-07-30T21:51:27.292Z,2.42
2022-07-30T21:55:52.890Z,2.30
2022-07-30T22:00:01.691Z,1.95
2022-07-30T22:04:19.335Z,2.53
2022-07-30T22:08:30.452Z,2.05
2022-07-30T22:12:45.650Z,2.05
2022-07-30T22:16:53.932Z,2.08
2022-07-30T22:21:02.648Z,21.83
2022-07-30T22:25:11.649Z,2.13
2022-07-30T22:29:18.306Z,2.00
2022-07-30T22:33:30.027Z,1.98
2022-07-30T22:37:42.352Z,2.03
2022-07-30T22:41:52.933Z,2.10
2022-07-30T22:46:02.132Z,2.22
2022-07-30T22:50:11.751Z,1.98
2022-07-30T22:54:20.530Z,2.20
2022-07-30T22:58:31.293Z,1.88
2022-07-30T23:02:39.153Z,2.15
2022-07-30T23:06:49.952Z,1.80
2022-07-30T23:11:00.241Z,2.17
2022-07-30T23:12:26.913Z,2.10
2022-07-30T23:15:07.718Z,2.22
2022-07-30T23:19:22.036Z,2.30
2022-07-30T23:23:37.275Z,2.38
2022-07-30T23:27:48.780Z,2.42
2022-07-30T23:31:56.240Z,2.30
2022-07-30T23:36:07.339Z,2.33
2022-07-30T23:40:20.663Z,1.90
2022-07-30T23:44:36.770Z,1.90
2022-07-30T23:48:46.043Z,1.95
2022-07-30T23:52:55.835Z,1.65
2022-07-30T23:57:08.125Z,1.70
